McCallsburg, Iowa
Current Conditions -  °F | °C
As of 5:53 PM on Friday 28 Nov 2014 (Local Time) from KAMW Reporting Station
Clear Clear  
Wind Chill: 22°   Ceiling: Unl
Heat Index: 28°   Visibility: 8mi
Dew Point: 24°   Wind: 6mph
Humidity: 85%   Direction: 130°SE
Pressure: 29.76"   Gusts: NA
Location:  42.17°N, 93.39°W
Report Text: KAMW 282353Z AUTO 13005KT 8SM CLR M02/M04 A2976 RMK AO2 SLP089 T10221044 10006 21022 58012
Loading
Personal Weather Stations






























Interactive Weather Map New forecast layout! Learn more

10-Day Weather Forecast

Advertisements
Track Severe Weather on mobile